createdAt,value
2018-07-02T00:00:03.092Z,7.80
2018-07-02T00:02:31.516Z,7.80
2018-07-02T00:05:00.556Z,7.90
2018-07-02T00:07:28.949Z,7.80
2018-07-02T00:09:57.380Z,7.80
2018-07-02T00:12:26.086Z,7.60
2018-07-02T00:14:55.094Z,7.60
2018-07-02T00:17:23.524Z,7.40
2018-07-02T00:19:51.978Z,7.40
2018-07-02T00:22:20.382Z,7.30
2018-07-02T00:24:48.813Z,7.30
2018-07-02T00:27:17.268Z,7.20
2018-07-02T00:29:45.681Z,7.10
2018-07-02T00:32:14.109Z,7.10
2018-07-02T00:34:42.554Z,7.10
2018-07-02T00:37:10.991Z,7.10
2018-07-02T00:39:39.397Z,7.10
2018-07-02T00:42:07.840Z,7.10
2018-07-02T00:44:36.278Z,7.10
2018-07-02T00:47:04.658Z,7.10
2018-07-02T00:49:33.236Z,7.00
2018-07-02T00:52:01.802Z,6.90
2018-07-02T00:54:30.309Z,6.90
2018-07-02T00:59:26.900Z,6.70
2018-07-02T01:01:55.364Z,6.60
2018-07-02T01:04:23.808Z,6.50
2018-07-02T01:06:52.255Z,6.50
2018-07-02T01:09:20.620Z,6.50
2018-07-02T01:11:49.046Z,6.50
2018-07-02T01:14:17.465Z,6.50
2018-07-02T01:16:45.916Z,6.50
2018-07-02T01:19:14.264Z,6.50
2018-07-02T01:21:42.640Z,6.50
2018-07-02T01:24:11.070Z,6.50
2018-07-02T01:26:39.449Z,6.50
2018-07-02T01:29:07.840Z,6.40
2018-07-02T01:31:36.232Z,6.30
2018-07-02T01:34:04.798Z,6.30
2018-07-02T01:36:33.185Z,6.30
2018-07-02T01:39:01.786Z,6.20
2018-07-02T01:41:30.196Z,6.10
2018-07-02T01:43:58.596Z,5.90
2018-07-02T01:46:27.031Z,6.00
2018-07-02T01:48:55.406Z,6.00
2018-07-02T01:53:51.992Z,5.90
2018-07-02T01:56:20.360Z,5.90
2018-07-02T01:58:48.730Z,5.90
2018-07-02T02:01:17.137Z,5.80
2018-07-02T02:03:45.517Z,5.70
2018-07-02T02:06:13.926Z,5.70
2018-07-02T02:08:42.319Z,5.80
2018-07-02T02:11:10.692Z,5.70
2018-07-02T02:13:39.116Z,5.80
2018-07-02T02:16:07.548Z,5.80
2018-07-02T02:18:35.936Z,5.80
2018-07-02T02:21:04.390Z,5.80
2018-07-02T02:23:32.795Z,5.80
2018-07-02T02:26:01.199Z,5.70
2018-07-02T02:28:29.561Z,5.70
2018-07-02T02:30:57.977Z,5.70
2018-07-02T02:33:26.354Z,5.70
2018-07-02T02:35:54.740Z,5.70
2018-07-02T02:38:23.196Z,5.70
2018-07-02T02:40:51.517Z,5.70
2018-07-02T02:43:19.892Z,5.60
2018-07-02T02:45:48.291Z,5.50
2018-07-02T02:48:16.658Z,5.40
2018-07-02T02:50:45.111Z,5.40
2018-07-02T02:53:13.495Z,5.40
2018-07-02T02:55:41.948Z,5.40
2018-07-02T02:58:10.388Z,5.40
2018-07-02T03:00:38.767Z,5.40
2018-07-02T03:03:07.146Z,5.50
2018-07-02T03:05:35.558Z,5.40
2018-07-02T03:08:03.925Z,5.30
2018-07-02T03:10:32.288Z,5.30
2018-07-02T03:13:00.662Z,5.20
2018-07-02T03:15:29.072Z,5.20
2018-07-02T03:17:57.454Z,5.20
2018-07-02T03:20:25.863Z,5.30
2018-07-02T03:22:54.300Z,5.40
2018-07-02T03:27:50.789Z,5.40
2018-07-02T03:30:19.195Z,5.30
2018-07-02T03:32:47.605Z,5.30
2018-07-02T03:35:16.280Z,5.20
2018-07-02T03:37:44.676Z,5.20
2018-07-02T03:40:13.034Z,5.30
2018-07-02T03:42:41.385Z,5.50
2018-07-02T03:45:09.832Z,5.50
2018-07-02T03:47:38.226Z,5.50
2018-07-02T03:50:06.597Z,5.60
2018-07-02T03:52:35.017Z,5.60
2018-07-02T03:55:03.424Z,5.60
2018-07-02T03:57:31.788Z,5.60
2018-07-02T04:00:00.172Z,5.70
2018-07-02T04:02:28.593Z,5.80
2018-07-02T04:04:56.922Z,5.90
2018-07-02T04:09:53.412Z,6.10
2018-07-02T04:12:21.829Z,6.20
2018-07-02T04:14:50.202Z,6.30
2018-07-02T04:17:18.586Z,6.30
2018-07-02T04:19:46.957Z,6.30
2018-07-02T04:22:15.303Z,6.50
2018-07-02T04:24:43.675Z,6.60
2018-07-02T04:27:12.042Z,6.70
2018-07-02T04:29:40.437Z,6.80
2018-07-02T04:32:08.819Z,6.90
2018-07-02T04:34:37.237Z,7.10
2018-07-02T04:37:05.621Z,7.30
2018-07-02T04:39:34.022Z,7.40
2018-07-02T04:42:02.505Z,7.50
2018-07-02T04:44:30.884Z,7.70
2018-07-02T04:46:59.323Z,7.80
2018-07-02T04:49:27.731Z,7.90
2018-07-02T04:51:56.239Z,8.10
2018-07-02T04:54:25.499Z,8.40
2018-07-02T04:56:53.017Z,8.70
2018-07-02T04:59:21.437Z,8.90
2018-07-02T05:01:49.872Z,9.30
2018-07-02T05:06:46.347Z,10.00
2018-07-02T05:09:14.762Z,10.40
2018-07-02T05:11:43.132Z,10.80
2018-07-02T05:14:11.501Z,11.20
2018-07-02T05:16:39.907Z,11.50
2018-07-02T05:21:36.405Z,12.10
2018-07-02T05:24:04.748Z,12.50
2018-07-02T05:26:33.159Z,12.80
2018-07-02T05:29:01.565Z,13.50
2018-07-02T05:31:30.011Z,13.60
2018-07-02T05:33:58.555Z,14.00
2018-07-02T05:36:27.053Z,14.80
2018-07-02T05:38:55.444Z,15.60
2018-07-02T05:41:23.808Z,16.10
2018-07-02T05:43:52.186Z,16.40
2018-07-02T05:46:20.855Z,17.00
2018-07-02T05:48:49.362Z,18.00
2018-07-02T05:51:17.722Z,19.00
2018-07-02T05:53:46.064Z,20.10
2018-07-02T05:56:14.521Z,21.40
2018-07-02T05:58:42.907Z,22.20
2018-07-02T06:01:11.301Z,22.90
2018-07-02T06:03:39.751Z,23.40
2018-07-02T06:06:08.150Z,23.50
2018-07-02T06:08:36.560Z,23.40
2018-07-02T06:11:04.943Z,23.00
2018-07-02T06:13:33.347Z,23.60
2018-07-02T06:16:01.790Z,24.70
2018-07-02T06:18:30.337Z,25.50
2018-07-02T06:20:58.786Z,26.10
2018-07-02T06:23:27.206Z,26.60
2018-07-02T06:25:55.573Z,27.50
2018-07-02T06:28:23.927Z,27.40
2018-07-02T06:30:52.459Z,27.60
2018-07-02T06:33:20.954Z,28.20
2018-07-02T06:35:49.397Z,28.30
2018-07-02T06:38:17.944Z,28.20
2018-07-02T06:40:46.288Z,28.60
2018-07-02T06:43:29.037Z,29.60
2018-07-02T06:45:57.667Z,30.30
2018-07-02T06:48:26.070Z,30.80
2018-07-02T06:50:54.446Z,31.10
2018-07-02T06:53:22.798Z,31.50
2018-07-02T06:55:51.199Z,31.70
2018-07-02T06:58:19.608Z,30.20
2018-07-02T07:00:48.033Z,30.00
2018-07-02T07:03:16.431Z,30.80
2018-07-02T07:05:44.803Z,31.90
2018-07-02T07:08:13.200Z,32.20
2018-07-02T07:10:41.570Z,32.60
2018-07-02T07:13:09.983Z,32.80
2018-07-02T07:15:38.357Z,33.30
2018-07-02T07:18:06.744Z,33.40
2018-07-02T07:20:35.098Z,32.80
2018-07-02T07:23:03.779Z,32.00
2018-07-02T07:25:32.088Z,31.20
2018-07-02T07:28:00.474Z,30.80
2018-07-02T07:30:28.921Z,30.10
2018-07-02T07:32:57.366Z,30.10
2018-07-02T07:35:25.763Z,29.40
2018-07-02T07:37:54.472Z,27.70
2018-07-02T07:40:22.824Z,27.30
2018-07-02T07:42:51.288Z,27.10
2018-07-02T07:45:19.708Z,27.70
2018-07-02T07:47:48.063Z,27.20
2018-07-02T07:50:16.413Z,26.70
2018-07-02T07:52:45.431Z,27.50
2018-07-02T07:55:13.818Z,27.40
2018-07-02T07:57:42.154Z,26.30
2018-07-02T08:00:10.533Z,27.20
2018-07-02T08:02:39.000Z,27.10
2018-07-02T08:05:07.540Z,27.20
2018-07-02T08:07:35.936Z,27.60
2018-07-02T08:10:04.451Z,28.10
2018-07-02T08:12:32.820Z,27.60
2018-07-02T08:15:01.176Z,28.30
2018-07-02T08:17:29.648Z,29.40
2018-07-02T08:19:57.973Z,29.30
2018-07-02T08:22:26.315Z,29.50
2018-07-02T08:24:54.735Z,30.00
2018-07-02T08:27:23.158Z,29.90
2018-07-02T08:29:51.502Z,29.10
2018-07-02T08:32:19.891Z,29.30
2018-07-02T08:34:48.224Z,29.60
2018-07-02T08:37:16.576Z,30.00
2018-07-02T08:39:44.998Z,29.10
2018-07-02T08:42:13.365Z,28.00
2018-07-02T08:44:41.725Z,27.70
2018-07-02T08:47:10.096Z,26.70
2018-07-02T08:49:38.540Z,27.20
2018-07-02T08:52:06.854Z,27.70
2018-07-02T08:54:35.376Z,27.20
2018-07-02T08:57:03.957Z,28.10
2018-07-02T08:59:32.600Z,27.40
2018-07-02T09:02:00.981Z,25.40
2018-07-02T09:04:29.387Z,26.00
2018-07-02T09:06:57.877Z,26.80
2018-07-02T09:09:26.202Z,27.50
2018-07-02T09:11:54.589Z,28.10
2018-07-02T09:14:23.022Z,27.80
2018-07-02T09:16:51.385Z,28.40
2018-07-02T09:19:19.775Z,28.80
2018-07-02T09:21:48.186Z,29.00
2018-07-02T09:24:16.563Z,28.20
2018-07-02T09:26:45.025Z,26.80
2018-07-02T09:29:13.385Z,24.80
2018-07-02T09:31:41.820Z,22.10
2018-07-02T09:34:10.218Z,20.90
2018-07-02T09:36:38.674Z,20.70
2018-07-02T09:39:09.049Z,20.30
2018-07-02T09:41:37.351Z,19.70
2018-07-02T09:44:05.955Z,19.70
2018-07-02T09:46:34.437Z,19.70
2018-07-02T09:49:02.881Z,19.50
2018-07-02T09:51:31.307Z,19.60
2018-07-02T09:54:00.461Z,19.60
2018-07-02T09:56:28.922Z,19.60
2018-07-02T09:58:57.620Z,19.60
2018-07-02T10:01:26.032Z,19.60
2018-07-02T10:08:57.203Z,19.20
2018-07-02T10:11:25.604Z,19.20
2018-07-02T10:13:54.028Z,18.90
2018-07-02T10:16:22.402Z,18.90
2018-07-02T10:18:50.800Z,19.10
2018-07-02T10:21:19.189Z,19.10
2018-07-02T10:23:47.691Z,19.10
2018-07-02T10:26:16.054Z,18.90
2018-07-02T10:28:44.473Z,18.90
2018-07-02T10:31:13.036Z,18.80
2018-07-02T10:33:41.410Z,18.90
2018-07-02T10:36:09.798Z,19.10
2018-07-02T10:38:38.302Z,19.10
2018-07-02T10:41:06.772Z,19.10
2018-07-02T10:43:35.130Z,19.10
2018-07-02T10:46:03.676Z,19.10
2018-07-02T10:48:32.057Z,19.10
2018-07-02T10:51:00.610Z,19.20
2018-07-02T10:53:29.057Z,19.20
2018-07-02T10:55:57.446Z,19.10
2018-07-02T10:58:25.908Z,18.90
2018-07-02T11:00:54.286Z,19.00
2018-07-02T11:03:22.686Z,19.10
2018-07-02T11:05:51.075Z,19.20
2018-07-02T11:08:19.444Z,19.30
2018-07-02T11:10:48.102Z,19.30
2018-07-02T11:13:16.524Z,19.40
2018-07-02T11:15:44.922Z,19.30
2018-07-02T11:18:13.367Z,19.10
2018-07-02T11:20:42.327Z,19.00
2018-07-02T11:23:10.751Z,19.00
2018-07-02T11:25:39.934Z,19.10
2018-07-02T11:28:08.480Z,19.10
2018-07-02T11:30:36.889Z,19.20
2018-07-02T11:33:05.377Z,19.10
2018-07-02T11:35:33.732Z,19.10
2018-07-02T11:38:02.137Z,19.20
2018-07-02T11:40:30.576Z,19.20
2018-07-02T11:42:58.980Z,19.10
2018-07-02T11:45:27.335Z,19.20
2018-07-02T11:47:55.672Z,19.30
2018-07-02T11:50:24.033Z,19.40
2018-07-02T11:52:52.457Z,19.40
2018-07-02T11:57:48.996Z,19.40
2018-07-02T12:00:17.363Z,19.30
2018-07-02T12:02:45.736Z,19.40
2018-07-02T12:05:14.166Z,19.40
2018-07-02T12:07:42.566Z,19.40
2018-07-02T12:10:10.962Z,19.40
2018-07-02T12:12:39.497Z,19.40
2018-07-02T12:15:07.926Z,19.60
2018-07-02T12:17:36.471Z,19.60
2018-07-02T12:20:05.400Z,19.60
2018-07-02T12:22:33.784Z,19.60
2018-07-02T12:25:02.156Z,19.70
2018-07-02T12:27:30.516Z,19.60
2018-07-02T12:29:58.922Z,19.50
2018-07-02T12:32:27.321Z,19.40
2018-07-02T12:34:55.694Z,19.30
2018-07-02T12:37:24.088Z,19.50
2018-07-02T12:39:52.458Z,19.60
2018-07-02T12:42:20.835Z,19.50
2018-07-02T12:44:49.250Z,19.50
2018-07-02T12:47:17.636Z,19.50
2018-07-02T12:49:46.116Z,19.50
2018-07-02T12:52:14.553Z,19.60
2018-07-02T12:54:42.932Z,19.70
2018-07-02T12:57:11.379Z,19.80
2018-07-02T12:59:40.034Z,19.80
2018-07-02T13:02:08.395Z,19.80
2018-07-02T13:04:36.733Z,19.70
2018-07-02T13:07:05.209Z,19.80
2018-07-02T13:09:33.575Z,19.80
2018-07-02T13:12:01.939Z,19.80
2018-07-02T13:14:30.477Z,19.70
2018-07-02T13:16:58.868Z,19.70
2018-07-02T13:19:27.439Z,19.70
2018-07-02T13:21:55.817Z,19.80
2018-07-02T13:24:24.230Z,19.70
2018-07-02T13:26:52.619Z,19.60
2018-07-02T13:29:21.040Z,19.60
2018-07-02T13:31:49.436Z,19.70
2018-07-02T13:34:17.869Z,19.90
2018-07-02T13:36:46.232Z,20.00
2018-07-02T13:39:14.616Z,19.90
2018-07-02T13:41:43.043Z,19.90
2018-07-02T13:44:11.392Z,19.80
2018-07-02T13:46:40.155Z,19.90
2018-07-02T13:49:08.693Z,19.90
2018-07-02T13:51:37.101Z,19.90
2018-07-02T13:54:05.809Z,19.90
2018-07-02T13:56:34.730Z,20.00
2018-07-02T13:59:03.157Z,20.00
2018-07-02T14:01:31.614Z,20.00
2018-07-02T14:04:00.041Z,20.00
2018-07-02T14:06:28.554Z,20.10
2018-07-02T14:08:57.211Z,20.00
2018-07-02T14:11:26.625Z,19.90
2018-07-02T14:13:55.442Z,19.80
2018-07-02T14:16:24.027Z,19.80
2018-07-02T14:18:52.617Z,19.80
2018-07-02T14:21:21.460Z,19.90
2018-07-02T14:23:50.235Z,19.90
2018-07-02T14:26:18.963Z,20.00
2018-07-02T14:28:48.222Z,20.00
2018-07-02T14:31:17.035Z,20.10
2018-07-02T14:33:45.787Z,20.10
2018-07-02T14:36:14.651Z,20.10
2018-07-02T14:38:43.352Z,20.10
2018-07-02T14:41:12.113Z,20.10
2018-07-02T14:46:09.302Z,20.20
2018-07-02T14:48:37.935Z,20.30
2018-07-02T14:51:06.527Z,20.30
2018-07-02T14:53:35.073Z,20.20
2018-07-02T14:56:03.554Z,20.30
2018-07-02T14:58:31.984Z,20.20
2018-07-02T15:01:00.562Z,20.30
2018-07-02T15:03:29.167Z,20.40
2018-07-02T15:05:57.578Z,20.30
2018-07-02T15:08:26.138Z,20.30
2018-07-02T15:10:54.690Z,20.30
2018-07-02T15:13:23.297Z,20.30
2018-07-02T15:15:51.899Z,20.20
2018-07-02T15:18:20.666Z,20.20
2018-07-02T15:20:49.322Z,20.30
2018-07-02T15:23:18.054Z,20.30
2018-07-02T15:25:46.724Z,20.40
2018-07-02T15:30:43.818Z,20.50
2018-07-02T15:33:12.577Z,20.50
2018-07-02T15:35:41.360Z,20.40
2018-07-02T15:38:10.133Z,20.30
2018-07-02T15:40:39.136Z,20.20
2018-07-02T15:43:07.823Z,20.30
2018-07-02T15:45:36.843Z,20.30
2018-07-02T15:48:05.467Z,20.30
2018-07-02T15:50:34.249Z,20.30
2018-07-02T15:53:02.521Z,20.30
2018-07-02T15:55:31.076Z,20.40
2018-07-02T15:57:59.549Z,20.30
2018-07-02T16:00:27.993Z,20.30
2018-07-02T16:02:56.345Z,20.30
2018-07-02T16:05:24.851Z,20.30
2018-07-02T16:07:53.876Z,20.30
2018-07-02T16:10:22.467Z,20.30
2018-07-02T16:12:50.866Z,20.30
2018-07-02T16:15:19.439Z,20.30
2018-07-02T16:17:47.953Z,20.30
2018-07-02T16:20:16.996Z,20.40
2018-07-02T16:22:45.636Z,20.40
2018-07-02T16:25:14.074Z,20.40
2018-07-02T16:27:42.525Z,20.40
2018-07-02T16:32:39.505Z,20.30
2018-07-02T16:35:07.919Z,20.40
2018-07-02T16:37:36.346Z,20.40
2018-07-02T16:40:05.196Z,20.30
2018-07-02T16:42:33.608Z,20.30
2018-07-02T16:45:02.220Z,20.20
2018-07-02T16:47:30.732Z,20.20
2018-07-02T16:49:59.278Z,20.10
2018-07-02T16:52:27.920Z,20.20
2018-07-02T16:54:56.450Z,20.20
2018-07-02T16:57:25.037Z,20.20
2018-07-02T16:59:53.506Z,20.20
2018-07-02T17:02:22.150Z,20.10
2018-07-02T17:04:50.604Z,20.00
2018-07-02T17:07:19.112Z,20.00
2018-07-02T17:09:47.829Z,20.00
2018-07-02T17:12:17.570Z,20.00
2018-07-02T17:14:46.045Z,20.00
2018-07-02T17:17:14.453Z,20.00
2018-07-02T17:19:43.200Z,19.90
2018-07-02T17:22:11.639Z,19.90
2018-07-02T17:24:40.142Z,19.90
2018-07-02T17:27:08.512Z,19.80
2018-07-02T17:29:36.924Z,19.80
2018-07-02T17:32:05.405Z,19.80
2018-07-02T17:34:33.789Z,19.80
2018-07-02T17:37:02.176Z,19.80
2018-07-02T17:39:30.983Z,19.80
2018-07-02T17:41:59.396Z,19.70
2018-07-02T17:44:27.758Z,19.70
2018-07-02T17:46:56.170Z,19.70
2018-07-02T17:49:24.820Z,19.70
2018-07-02T17:51:53.326Z,19.60
2018-07-02T17:54:21.708Z,19.60
2018-07-02T17:59:19.399Z,19.50
2018-07-02T18:01:48.124Z,19.50
2018-07-02T18:04:16.773Z,19.40
2018-07-02T18:06:45.584Z,19.40
2018-07-02T18:09:14.286Z,19.40
2018-07-02T18:11:42.958Z,19.30
2018-07-02T18:14:11.937Z,19.20
2018-07-02T18:16:40.675Z,19.20
2018-07-02T18:19:09.421Z,19.10
2018-07-02T18:24:06.736Z,19.00
2018-07-02T18:26:35.513Z,19.00
2018-07-02T18:29:04.069Z,18.90
2018-07-02T18:31:32.724Z,18.80
2018-07-02T18:34:01.459Z,18.80
2018-07-02T18:38:58.572Z,18.70
2018-07-02T18:41:27.371Z,18.70
2018-07-02T18:43:56.072Z,18.60
2018-07-02T18:46:24.885Z,18.50
2018-07-02T18:48:53.614Z,18.50
2018-07-02T18:51:22.309Z,18.40
2018-07-02T18:53:51.484Z,18.30
2018-07-02T18:56:20.653Z,18.30
2018-07-02T18:58:49.643Z,18.20
2018-07-02T19:01:18.775Z,18.10
2018-07-02T19:03:47.748Z,18.00
2018-07-02T19:06:16.695Z,17.90
2018-07-02T19:08:45.742Z,17.90
2018-07-02T19:11:14.776Z,17.80
2018-07-02T19:13:43.784Z,17.70
2018-07-02T19:16:12.768Z,17.60
2018-07-02T19:18:41.858Z,17.50
2018-07-02T19:21:10.815Z,17.40
2018-07-02T19:23:41.677Z,17.40
2018-07-02T19:26:10.715Z,17.30
2018-07-02T19:28:40.620Z,17.20
2018-07-02T19:31:09.652Z,17.10
2018-07-02T19:33:38.693Z,17.10
2018-07-02T19:36:07.638Z,17.00
2018-07-02T19:38:36.532Z,16.90
2018-07-02T19:41:05.638Z,16.80
2018-07-02T19:43:34.514Z,16.80
2018-07-02T19:46:03.225Z,16.70
2018-07-02T19:48:31.996Z,16.70
2018-07-02T19:51:00.757Z,16.70
2018-07-02T19:53:29.570Z,16.60
2018-07-02T19:55:58.350Z,16.40
2018-07-02T19:58:27.084Z,16.30
2018-07-02T20:00:55.639Z,16.20
2018-07-02T20:03:24.322Z,16.10
2018-07-02T20:05:52.946Z,16.00
2018-07-02T20:08:21.685Z,15.70
2018-07-02T20:10:50.255Z,15.40
2018-07-02T20:13:18.905Z,15.10
2018-07-02T20:15:47.812Z,14.90
2018-07-02T20:18:16.742Z,14.70
2018-07-02T20:20:45.577Z,14.60
2018-07-02T20:23:14.446Z,14.50
2018-07-02T20:25:43.114Z,14.20
2018-07-02T20:28:11.785Z,13.90
2018-07-02T20:30:40.474Z,13.60
2018-07-02T20:33:09.341Z,13.50
2018-07-02T20:35:38.022Z,13.50
2018-07-02T20:38:06.557Z,13.50
2018-07-02T20:40:35.421Z,13.50
2018-07-02T20:43:04.005Z,13.20
2018-07-02T20:45:32.461Z,13.00
2018-07-02T20:48:00.831Z,12.70
2018-07-02T20:50:29.189Z,12.60
2018-07-02T20:52:57.597Z,12.40
2018-07-02T20:55:26.058Z,12.20
2018-07-02T20:57:54.406Z,12.10
2018-07-02T21:00:22.873Z,11.90
2018-07-02T21:02:51.253Z,11.80
2018-07-02T21:05:19.705Z,11.80
2018-07-02T21:07:48.103Z,11.80
2018-07-02T21:10:16.518Z,11.80
2018-07-02T21:12:44.941Z,11.70
2018-07-02T21:15:13.347Z,11.60
2018-07-02T21:17:41.752Z,11.40
2018-07-02T21:20:10.107Z,11.20
2018-07-02T21:22:38.440Z,11.10
2018-07-02T21:25:06.769Z,10.90
2018-07-02T21:27:35.267Z,10.80
2018-07-02T21:30:04.007Z,10.80
2018-07-02T21:32:32.472Z,10.90
2018-07-02T21:35:01.709Z,11.00
2018-07-02T21:37:30.084Z,11.00
2018-07-02T21:39:58.402Z,11.00
2018-07-02T21:42:26.764Z,10.90
2018-07-02T21:44:55.108Z,10.70
2018-07-02T21:47:24.716Z,10.60
2018-07-02T21:49:53.029Z,10.50
2018-07-02T21:52:21.578Z,10.40
2018-07-02T21:54:49.922Z,10.40
2018-07-02T21:57:18.255Z,10.30
2018-07-02T21:59:46.633Z,10.30
2018-07-02T22:02:15.032Z,10.40
2018-07-02T22:04:43.558Z,10.40
2018-07-02T22:07:12.159Z,10.50
2018-07-02T22:09:40.532Z,10.30
2018-07-02T22:12:08.910Z,10.00
2018-07-02T22:14:37.299Z,9.90
2018-07-02T22:17:05.651Z,9.70
2018-07-02T22:19:33.998Z,9.60
2018-07-02T22:22:02.366Z,9.50
2018-07-02T22:24:30.771Z,9.50
2018-07-02T22:26:59.116Z,9.40
2018-07-02T22:29:27.464Z,9.50
2018-07-02T22:31:55.802Z,9.50
2018-07-02T22:34:24.215Z,9.50
2018-07-02T22:36:52.547Z,9.50
2018-07-02T22:39:20.909Z,9.30
2018-07-02T22:41:49.232Z,9.30
2018-07-02T22:44:17.602Z,9.20
2018-07-02T22:46:45.949Z,9.20
2018-07-02T22:49:14.268Z,9.10
2018-07-02T22:51:42.602Z,9.10
2018-07-02T22:54:10.991Z,9.10
2018-07-02T22:56:39.316Z,9.10
2018-07-02T22:59:07.657Z,9.00
2018-07-02T23:01:36.081Z,9.00
2018-07-02T23:04:04.645Z,9.00
2018-07-02T23:06:32.973Z,9.00
2018-07-02T23:09:01.351Z,9.00
2018-07-02T23:11:29.723Z,9.00
2018-07-02T23:13:58.041Z,9.00
2018-07-02T23:16:26.386Z,8.90
2018-07-02T23:18:54.795Z,8.80
2018-07-02T23:21:23.160Z,8.70
2018-07-02T23:23:51.506Z,8.60
2018-07-02T23:26:19.868Z,8.60
2018-07-02T23:28:48.227Z,8.50
2018-07-02T23:31:16.586Z,8.60
2018-07-02T23:33:45.093Z,8.60
2018-07-02T23:36:13.438Z,8.60
2018-07-02T23:38:41.796Z,8.50
2018-07-02T23:41:10.142Z,8.50
2018-07-02T23:43:38.505Z,8.50
2018-07-02T23:46:06.871Z,8.50
2018-07-02T23:48:35.219Z,8.40
2018-07-02T23:51:03.614Z,8.40
2018-07-02T23:53:31.974Z,8.30
2018-07-02T23:56:00.355Z,8.20
2018-07-02T23:58:28.720Z,8.10
